Time;durP1;ratioP1;P1;durP2;ratioP2;P2;SDS_P1;SDS_P2;PMS_P1;PMS_P2;Temp;Humidity;BMP_temperature;BMP_pressure;BME280_temperature;BME280_humidity;BME280_pressure;Samples;Min_cycle;Max_cycle;Signal;HPM_P1;HPM_P2
2021/08/06 00:01:19;;;;;;;0.10;0.10;;;25.80;57.40;;;;;;5026951;28;20048;-73
2021/08/06 00:03:46;;;;;;;0.00;0.00;;;25.80;57.40;;;;;;5026586;28;20053;-72
2021/08/06 00:06:17;;;;;;;0.10;0.10;;;25.80;57.40;;;;;;5025594;28;20116;-73
2021/08/06 00:08:44;;;;;;;0.00;0.00;;;25.80;57.40;;;;;;5026118;28;20573;-72
2021/08/06 00:11:11;;;;;;;0.10;0.10;;;25.80;57.40;;;;;;5025314;28;20052;-73
2021/08/06 00:13:38;;;;;;;0.10;0.00;;;25.80;57.30;;;;;;5022384;28;20042;-72
2021/08/06 00:16:05;;;;;;;0.00;0.00;;;25.80;57.30;;;;;;5015311;28;20484;-72
2021/08/06 00:18:32;;;;;;;0.10;0.00;;;25.80;57.30;;;;;;5011102;28;20051;-73
2021/08/06 00:20:59;;;;;;;0.00;0.00;;;25.80;57.30;;;;;;5025534;28;20087;-73
2021/08/06 00:23:26;;;;;;;0.00;0.00;;;25.80;57.30;;;;;;5026451;28;20141;-73
2021/08/06 00:25:53;;;;;;;0.00;0.00;;;25.80;57.40;;;;;;5025509;28;20157;-73
2021/08/06 00:28:20;;;;;;;0.05;0.00;;;25.80;57.30;;;;;;5025682;28;20136;-73
2021/08/06 00:30:47;;;;;;;0.10;0.10;;;25.80;57.30;;;;;;5026444;28;20045;-72
2021/08/06 00:33:15;;;;;;;0.00;0.00;;;25.80;57.30;;;;;;5026342;28;20391;-73
2021/08/06 00:35:42;;;;;;;0.10;0.10;;;25.80;57.30;;;;;;5026305;28;20200;-73
2021/08/06 00:38:09;;;;;;;0.00;0.00;;;25.80;57.30;;;;;;5026206;28;20045;-72
2021/08/06 00:40:36;;;;;;;0.00;0.00;;;25.70;57.20;;;;;;5026040;28;20124;-72
2021/08/06 00:43:03;;;;;;;0.00;0.00;;;25.70;57.30;;;;;;5026453;28;20049;-72
2021/08/06 00:45:30;;;;;;;0.00;0.00;;;25.70;57.30;;;;;;5025178;28;20128;-73
2021/08/06 00:47:58;;;;;;;0.00;0.00;;;25.70;57.30;;;;;;5026744;28;20077;-73
2021/08/06 00:50:25;;;;;;;0.00;0.00;;;25.70;57.30;;;;;;5025847;28;20045;-72
2021/08/06 00:52:52;;;;;;;0.32;0.10;;;25.70;57.30;;;;;;5025961;28;20049;-73
2021/08/06 00:55:19;;;;;;;0.45;0.00;;;25.70;57.30;;;;;;5025935;28;20077;-72
2021/08/06 00:57:46;;;;;;;0.00;0.00;;;25.70;57.20;;;;;;5026229;28;20606;-73
2021/08/06 01:00:14;;;;;;;0.10;0.00;;;25.70;57.20;;;;;;5025951;28;20461;-73
2021/08/06 01:02:56;;;;;;;0.20;0.00;;;25.70;57.20;;;;;;5026213;28;20091;-73
2021/08/06 01:05:30;;;;;;;0.00;0.00;;;25.70;57.20;;;;;;5025655;28;20471;-73
2021/08/06 01:08:14;;;;;;;0.00;0.00;;;25.70;57.20;;;;;;5025927;28;20321;-72
2021/08/06 01:10:55;;;;;;;0.00;0.00;;;25.70;57.20;;;;;;5023758;28;20051;-73
2021/08/06 01:13:43;;;;;;;0.00;0.00;;;25.70;57.30;;;;;;5026211;28;20496;-73
2021/08/06 01:16:12;;;;;;;0.00;0.00;;;25.70;57.20;;;;;;5025711;28;20045;-73
2021/08/06 01:18:57;;;;;;;0.00;0.00;;;25.70;57.20;;;;;;5025779;28;20053;-72
2021/08/06 01:21:27;;;;;;;0.00;0.00;;;25.70;57.20;;;;;;5025545;28;20134;-73
2021/08/06 01:23:59;;;;;;;0.00;0.00;;;25.70;57.10;;;;;;5025948;28;20525;-73
2021/08/06 01:26:27;;;;;;;0.00;0.00;;;25.70;57.10;;;;;;5023971;28;20327;-72
2021/08/06 01:28:54;;;;;;;0.00;0.00;;;25.70;57.10;;;;;;5026005;28;20046;-73
2021/08/06 01:31:26;;;;;;;0.00;0.00;;;25.70;57.10;;;;;;5026352;28;20131;-74
2021/08/06 01:33:54;;;;;;;0.00;0.00;;;25.70;57.10;;;;;;5029407;28;20057;-73
2021/08/06 01:36:22;;;;;;;0.03;0.00;;;25.70;57.10;;;;;;5029882;28;20128;-73
2021/08/06 01:38:50;;;;;;;0.10;0.00;;;25.70;57.10;;;;;;5029275;28;20050;-73
2021/08/06 01:41:49;;;;;;;0.00;0.00;;;25.70;57.00;;;;;;5029265;28;20368;-73
2021/08/06 01:44:32;;;;;;;0.00;0.00;;;25.70;57.00;;;;;;5029392;28;20666;-72
2021/08/06 01:47:13;;;;;;;0.00;0.00;;;25.70;57.00;;;;;;5029578;28;20055;-73
2021/08/06 01:49:42;;;;;;;0.00;0.00;;;25.70;57.00;;;;;;5029057;28;20144;-73
2021/08/06 01:52:14;;;;;;;0.20;0.00;;;25.70;56.90;;;;;;5029075;28;20153;-72
2021/08/06 01:54:43;;;;;;;0.35;0.00;;;25.70;57.00;;;;;;5029822;28;20124;-73
2021/08/06 01:57:11;;;;;;;0.00;0.00;;;25.70;57.00;;;;;;5028921;28;20053;-73
2021/08/06 01:59:39;;;;;;;0.00;0.00;;;25.70;57.00;;;;;;5029209;28;20053;-73
2021/08/06 02:02:08;;;;;;;1.20;0.00;;;25.70;57.50;;;;;;5028917;28;20049;-72
2021/08/06 02:04:36;;;;;;;0.00;0.00;;;25.70;57.00;;;;;;5028205;28;20045;-73
2021/08/06 02:07:03;;;;;;;0.15;0.00;;;25.70;57.00;;;;;;5028848;28;20046;-73
2021/08/06 02:09:31;;;;;;;0.00;0.00;;;25.70;57.00;;;;;;5028859;28;20423;-73
2021/08/06 02:11:58;;;;;;;0.00;0.00;;;25.70;57.00;;;;;;5027777;28;20055;-73
2021/08/06 02:14:25;;;;;;;0.00;0.00;;;25.70;57.00;;;;;;5028521;28;20068;-72
2021/08/06 02:16:53;;;;;;;0.03;0.00;;;25.70;56.90;;;;;;5028263;28;20054;-72
2021/08/06 02:19:23;;;;;;;0.00;0.00;;;25.70;56.90;;;;;;5028713;28;20157;-73
2021/08/06 02:21:53;;;;;;;0.10;0.10;;;25.70;56.90;;;;;;5028184;28;20073;-72
2021/08/06 02:24:22;;;;;;;0.00;0.00;;;25.70;56.90;;;;;;5028851;28;20406;-73
2021/08/06 02:26:51;;;;;;;0.00;0.00;;;25.70;56.90;;;;;;5028536;28;20045;-72
2021/08/06 02:29:20;;;;;;;0.10;0.10;;;25.70;56.90;;;;;;5028484;28;20289;-70
2021/08/06 02:31:49;;;;;;;0.10;0.10;;;25.70;56.90;;;;;;5028271;28;20128;-72
2021/08/06 02:34:17;;;;;;;0.00;0.00;;;25.70;56.90;;;;;;5028612;28;20289;-72
2021/08/06 02:36:46;;;;;;;0.00;0.00;;;25.70;56.90;;;;;;5028941;28;20077;-72
2021/08/06 02:39:19;;;;;;;0.10;0.10;;;25.70;56.90;;;;;;5028506;28;20136;-72
2021/08/06 02:41:47;;;;;;;0.00;0.00;;;25.70;56.90;;;;;;5028064;28;20132;-72
2021/08/06 02:44:14;;;;;;;0.00;0.00;;;25.70;56.90;;;;;;5028005;28;20084;-72
2021/08/06 02:46:42;;;;;;;0.00;0.00;;;25.70;56.90;;;;;;5028237;28;20409;-72
2021/08/06 02:49:09;;;;;;;0.00;0.00;;;25.70;56.90;;;;;;5028496;28;20053;-72
2021/08/06 02:51:36;;;;;;;0.00;0.00;;;25.70;56.90;;;;;;5027460;28;20440;-73
2021/08/06 02:54:04;;;;;;;0.00;0.00;;;25.70;56.80;;;;;;5028468;28;20079;-72
2021/08/06 02:56:31;;;;;;;0.00;0.00;;;25.70;56.80;;;;;;5028052;28;20125;-72
2021/08/06 02:58:58;;;;;;;0.10;0.00;;;25.70;56.80;;;;;;5027742;28;20309;-72
2021/08/06 03:01:25;;;;;;;0.00;0.00;;;25.70;56.80;;;;;;5027857;28;20064;-72
2021/08/06 03:03:53;;;;;;;0.52;0.08;;;25.70;56.80;;;;;;5027704;28;20041;-72
2021/08/06 03:06:20;;;;;;;0.00;0.00;;;25.70;56.80;;;;;;5027613;28;20554;-72
2021/08/06 03:08:47;;;;;;;0.85;0.00;;;25.70;56.70;;;;;;5028154;28;20088;-72
2021/08/06 03:11:14;;;;;;;0.00;0.00;;;25.70;56.70;;;;;;5027397;28;20458;-72
2021/08/06 03:13:41;;;;;;;0.10;0.00;;;25.70;56.70;;;;;;5027837;28;20486;-73
2021/08/06 03:16:08;;;;;;;0.10;0.03;;;25.70;56.60;;;;;;5027468;28;20129;-72
2021/08/06 03:18:37;;;;;;;0.00;0.00;;;25.70;56.60;;;;;;5026849;28;20136;-72
2021/08/06 03:21:04;;;;;;;0.85;0.00;;;25.70;56.70;;;;;;5027105;28;20120;-72
2021/08/06 03:23:31;;;;;;;0.00;0.00;;;25.70;56.60;;;;;;5027350;28;20128;-72
2021/08/06 03:25:58;;;;;;;0.00;0.00;;;25.70;56.60;;;;;;5027523;28;20406;-72
2021/08/06 03:28:25;;;;;;;0.00;0.00;;;25.70;56.60;;;;;;5027443;28;20064;-72
2021/08/06 03:30:53;;;;;;;0.10;0.00;;;25.70;56.60;;;;;;5027072;28;20360;-72
2021/08/06 03:33:20;;;;;;;0.08;0.00;;;25.70;56.70;;;;;;5026762;28;20114;-72
2021/08/06 03:35:48;;;;;;;0.00;0.00;;;25.70;56.60;;;;;;5027260;28;20141;-72
2021/08/06 03:38:17;;;;;;;0.05;0.00;;;25.70;56.70;;;;;;5027249;28;20038;-72
2021/08/06 03:40:45;;;;;;;0.00;0.00;;;25.70;56.60;;;;;;5026508;28;20143;-72
2021/08/06 03:43:12;;;;;;;0.10;0.10;;;25.70;56.60;;;;;;5026667;28;20140;-72
2021/08/06 03:45:40;;;;;;;0.00;0.00;;;25.70;56.60;;;;;;5026670;28;20041;-72
2021/08/06 03:48:07;;;;;;;0.00;0.00;;;25.70;56.70;;;;;;5026455;28;20049;-72
2021/08/06 03:50:35;;;;;;;0.00;0.00;;;25.70;56.70;;;;;;5026046;28;20128;-72
2021/08/06 03:53:03;;;;;;;0.00;0.00;;;25.70;56.60;;;;;;5026563;28;20136;-72
2021/08/06 03:55:30;;;;;;;0.00;0.00;;;25.70;56.60;;;;;;5025901;28;20086;-72
2021/08/06 03:57:58;;;;;;;0.00;0.00;;;25.70;56.60;;;;;;5026002;28;20128;-72
2021/08/06 04:00:28;;;;;;;0.00;0.00;;;25.70;56.60;;;;;;5026725;28;20132;-72
2021/08/06 04:02:55;;;;;;;0.00;0.00;;;25.70;56.60;;;;;;5026704;28;20055;-72
2021/08/06 04:05:22;;;;;;;0.00;0.00;;;25.70;56.50;;;;;;5026350;28;20049;-72
2021/08/06 04:07:50;;;;;;;0.00;0.00;;;25.70;56.50;;;;;;5026460;28;20537;-72
2021/08/06 04:10:20;;;;;;;0.00;0.00;;;25.70;56.50;;;;;;5026428;28;20053;-72
2021/08/06 04:12:48;;;;;;;0.00;0.00;;;25.70;56.40;;;;;;5026591;28;20350;-73
2021/08/06 04:15:16;;;;;;;0.00;0.00;;;25.70;56.40;;;;;;5026077;28;20115;-72
2021/08/06 04:17:44;;;;;;;0.00;0.00;;;25.70;56.30;;;;;;5025970;28;20051;-72
2021/08/06 04:20:12;;;;;;;0.00;0.00;;;25.80;56.30;;;;;;5026924;28;20049;-72
2021/08/06 04:22:39;;;;;;;0.00;0.00;;;25.80;56.30;;;;;;5025787;28;20498;-72
2021/08/06 04:25:08;;;;;;;0.03;0.03;;;25.80;56.20;;;;;;5025790;28;20135;-72
2021/08/06 04:27:35;;;;;;;0.00;0.00;;;25.80;56.20;;;;;;5026212;28;20045;-72
2021/08/06 04:30:04;;;;;;;0.00;0.00;;;25.80;56.10;;;;;;5026395;28;20374;-73
2021/08/06 04:32:31;;;;;;;0.10;0.00;;;25.90;56.20;;;;;;5025474;28;20466;-72
2021/08/06 04:34:59;;;;;;;0.28;0.15;;;25.90;56.10;;;;;;5021808;28;20720;-73
2021/08/06 04:37:26;;;;;;;0.00;0.00;;;25.90;56.00;;;;;;5005236;28;20081;-72
2021/08/06 04:39:53;;;;;;;0.00;0.00;;;25.90;55.90;;;;;;5004895;28;20161;-73
2021/08/06 04:42:20;;;;;;;0.00;0.00;;;25.90;55.90;;;;;;5005792;28;20042;-72
2021/08/06 04:44:48;;;;;;;0.00;0.00;;;25.90;55.80;;;;;;5024518;28;20136;-72
2021/08/06 04:47:15;;;;;;;0.00;0.00;;;26.00;55.80;;;;;;5010501;28;20049;-72
2021/08/06 04:49:42;;;;;;;0.00;0.00;;;26.00;55.70;;;;;;5006591;28;20046;-72
2021/08/06 04:52:09;;;;;;;0.00;0.00;;;26.00;55.60;;;;;;5024128;28;20069;-72
2021/08/06 04:54:37;;;;;;;0.10;0.10;;;26.00;55.60;;;;;;5023676;28;20045;-72
2021/08/06 04:57:05;;;;;;;1.13;0.10;;;26.00;55.50;;;;;;5039135;28;20080;-72
2021/08/06 04:59:32;;;;;;;0.38;0.00;;;26.00;55.50;;;;;;5025396;28;20103;-72
2021/08/06 05:01:59;;;;;;;0.00;0.00;;;26.00;55.50;;;;;;5024831;28;20498;-73
2021/08/06 05:04:26;;;;;;;0.10;0.10;;;26.10;55.40;;;;;;5024835;28;20572;-72
2021/08/06 05:06:53;;;;;;;0.08;0.08;;;26.10;55.40;;;;;;5023012;28;20073;-72
2021/08/06 05:09:20;;;;;;;0.00;0.00;;;26.00;55.40;;;;;;5026057;28;20124;-72
2021/08/06 05:11:47;;;;;;;0.10;0.10;;;26.00;55.50;;;;;;5029066;28;20045;-71
2021/08/06 05:14:14;;;;;;;0.00;0.00;;;25.90;55.70;;;;;;5022132;28;20049;-72
2021/08/06 05:16:41;;;;;;;0.13;0.03;;;25.70;55.80;;;;;;5016564;28;20053;-72
2021/08/06 05:19:08;;;;;;;0.10;0.10;;;25.60;56.10;;;;;;5019137;28;20140;-72
2021/08/06 05:21:35;;;;;;;0.10;0.10;;;25.40;56.60;;;;;;5026673;28;20041;-71
2021/08/06 05:24:03;;;;;;;0.10;0.10;;;25.10;57.30;;;;;;5029900;28;20045;-72
2021/08/06 05:26:31;;;;;;;0.05;0.05;;;24.80;58.10;;;;;;5026475;28;20055;-72
2021/08/06 05:28:58;;;;;;;0.15;0.15;;;24.50;58.50;;;;;;5024158;28;20045;-72
2021/08/06 05:31:25;;;;;;;0.08;0.08;;;24.30;58.60;;;;;;5022095;28;20077;-72
2021/08/06 05:33:52;;;;;;;0.22;0.20;;;24.20;58.60;;;;;;5022801;28;20077;-71
2021/08/06 05:36:20;;;;;;;0.10;0.10;;;24.10;58.70;;;;;;5023130;28;20139;-72
2021/08/06 05:38:47;;;;;;;0.32;0.17;;;24.00;58.70;;;;;;5029881;28;20133;-71
2021/08/06 05:41:14;;;;;;;0.10;0.10;;;23.80;58.70;;;;;;5018346;28;20137;-72
2021/08/06 05:43:41;;;;;;;0.30;0.25;;;23.80;58.80;;;;;;5024131;28;20107;-72
2021/08/06 05:46:08;;;;;;;1.58;0.30;;;23.70;58.90;;;;;;5023208;28;20163;-72
2021/08/06 05:48:36;;;;;;;0.47;0.28;;;23.60;59.30;;;;;;5024314;28;20050;-69
2021/08/06 05:51:03;;;;;;;0.40;0.32;;;23.60;59.60;;;;;;5020619;28;20111;-72
2021/08/06 05:53:30;;;;;;;0.63;0.20;;;23.50;59.50;;;;;;5025650;28;20076;-74
2021/08/06 05:55:59;;;;;;;0.22;0.20;;;23.50;59.70;;;;;;5021563;28;20128;-70
2021/08/06 05:58:27;;;;;;;0.40;0.30;;;23.40;60.00;;;;;;5017157;28;20136;-68
2021/08/06 06:00:55;;;;;;;4.70;0.50;;;23.40;60.10;;;;;;5024001;28;20077;-70
2021/08/06 06:03:22;;;;;;;0.20;0.20;;;23.40;60.00;;;;;;5019323;28;20517;-71
2021/08/06 06:05:49;;;;;;;0.52;0.40;;;23.30;60.10;;;;;;5022579;28;20428;-70
2021/08/06 06:08:16;;;;;;;2.80;0.40;;;23.30;60.20;;;;;;5016750;28;20125;-69
2021/08/06 06:10:43;;;;;;;1.17;0.50;;;23.20;60.00;;;;;;5023691;28;20049;-67
2021/08/06 06:13:11;;;;;;;0.40;0.30;;;23.20;60.20;;;;;;5018199;28;20056;-67
2021/08/06 06:15:38;;;;;;;0.30;0.30;;;23.20;60.70;;;;;;5026136;28;20481;-70
2021/08/06 06:18:05;;;;;;;0.88;0.63;;;23.20;60.60;;;;;;5016481;28;20049;-73
2021/08/06 06:20:32;;;;;;;1.80;0.30;;;23.20;60.40;;;;;;5023516;28;20077;-71
2021/08/06 06:23:00;;;;;;;0.45;0.32;;;23.20;60.40;;;;;;5010640;28;20417;-67
2021/08/06 06:25:27;;;;;;;1.65;0.45;;;23.20;60.90;;;;;;5022269;28;20467;-70
2021/08/06 06:27:56;;;;;;;0.85;0.43;;;23.10;60.60;;;;;;5013310;28;20153;-63
2021/08/06 06:30:25;;;;;;;0.60;0.30;;;23.10;60.80;;;;;;5015620;28;20177;-64
2021/08/06 06:32:53;;;;;;;0.40;0.40;;;23.10;60.70;;;;;;5022445;28;20054;-66
2021/08/06 06:35:21;;;;;;;0.50;0.50;;;23.10;60.90;;;;;;5022915;28;20057;-73
2021/08/06 06:37:49;;;;;;;0.52;0.40;;;23.10;60.80;;;;;;5025562;28;20034;-73
2021/08/06 06:40:18;;;;;;;0.32;0.32;;;23.10;60.80;;;;;;5014949;28;20133;-73
2021/08/06 06:42:46;;;;;;;0.50;0.50;;;23.10;60.70;;;;;;5020023;28;20136;-73
2021/08/06 06:45:14;;;;;;;2.85;0.70;;;23.10;60.60;;;;;;5021682;28;20049;-74
2021/08/06 06:47:44;;;;;;;0.70;0.70;;;23.10;60.90;;;;;;5039515;28;20136;-73
2021/08/06 06:50:15;;;;;;;0.63;0.50;;;23.00;60.90;;;;;;5018360;28;20068;-75
2021/08/06 06:52:43;;;;;;;0.77;0.60;;;23.00;61.00;;;;;;5018618;28;20072;-64
2021/08/06 06:55:11;;;;;;;0.80;0.30;;;23.00;61.00;;;;;;5016975;28;20085;-67
2021/08/06 06:57:44;;;;;;;2.70;0.65;;;23.00;61.30;;;;;;5021020;28;20124;-65
2021/08/06 07:00:13;;;;;;;1.85;0.32;;;23.10;61.20;;;;;;5019844;28;20569;-67
2021/08/06 07:02:41;;;;;;;0.32;0.32;;;23.10;61.50;;;;;;5018250;28;20077;-68
2021/08/06 07:05:09;;;;;;;0.50;0.40;;;23.10;61.80;;;;;;5015456;28;20081;-72
2021/08/06 07:07:37;;;;;;;0.50;0.50;;;23.10;61.50;;;;;;5020355;28;20069;-70
2021/08/06 07:10:08;;;;;;;0.82;0.77;;;23.10;61.50;;;;;;5017632;28;20049;-72
2021/08/06 07:12:36;;;;;;;0.70;0.70;;;23.10;61.50;;;;;;5020680;28;20469;-71
2021/08/06 07:15:06;;;;;;;1.15;0.50;;;23.00;61.30;;;;;;5015241;28;20529;-71
2021/08/06 07:17:35;;;;;;;1.13;0.57;;;23.00;61.00;;;;;;5015208;28;20080;-77
2021/08/06 07:20:04;;;;;;;0.47;0.38;;;23.00;61.30;;;;;;5017232;28;20037;-73
2021/08/06 07:22:31;;;;;;;1.98;0.85;;;23.00;61.50;;;;;;5016284;28;20080;-66
2021/08/06 07:24:58;;;;;;;0.38;0.38;;;23.00;61.10;;;;;;5019349;28;20045;-66
2021/08/06 07:27:25;;;;;;;0.88;0.88;;;23.00;61.30;;;;;;5019409;28;20085;-64
2021/08/06 07:29:53;;;;;;;0.47;0.40;;;23.00;61.50;;;;;;5016752;28;20056;-68
2021/08/06 07:32:21;;;;;;;0.50;0.50;;;23.00;60.30;;;;;;5017567;28;20053;-67
2021/08/06 07:34:53;;;;;;;0.85;0.25;;;23.00;60.30;;;;;;5024081;28;20045;-73
2021/08/06 07:37:21;;;;;;;0.50;0.40;;;23.10;59.40;;;;;;5018063;28;21538;-71
2021/08/06 07:39:49;;;;;;;0.88;0.50;;;23.10;59.20;;;;;;5017021;28;20163;-61
2021/08/06 07:42:17;;;;;;;0.75;0.50;;;23.10;59.40;;;;;;5020905;28;20050;-75
2021/08/06 07:44:45;;;;;;;0.40;0.40;;;23.10;59.50;;;;;;5020479;28;20169;-73
2021/08/06 07:47:12;;;;;;;0.52;0.50;;;23.00;59.30;;;;;;5022347;28;20084;-65
2021/08/06 07:49:41;;;;;;;0.50;0.50;;;23.10;59.30;;;;;;5021838;28;20042;-66
2021/08/06 07:52:11;;;;;;;1.85;0.40;;;23.10;59.20;;;;;;5019702;28;20081;-64
2021/08/06 07:54:38;;;;;;;0.52;0.40;;;23.10;59.30;;;;;;5018165;28;20103;-65
2021/08/06 07:57:06;;;;;;;0.30;0.30;;;23.10;59.80;;;;;;5016541;28;20129;-77
2021/08/06 07:59:33;;;;;;;1.42;0.73;;;23.10;59.90;;;;;;5020873;28;22043;-70
2021/08/06 08:02:00;;;;;;;1.17;0.60;;;23.10;59.70;;;;;;5021542;28;20092;-71
2021/08/06 08:04:28;;;;;;;1.52;0.40;;;23.10;59.50;;;;;;5021669;28;20409;-76
2021/08/06 08:06:55;;;;;;;0.22;0.22;;;23.00;59.30;;;;;;5019355;28;20045;-71
2021/08/06 08:09:22;;;;;;;0.50;0.50;;;23.00;59.30;;;;;;5022703;28;20117;-67
2021/08/06 08:11:49;;;;;;;2.00;0.32;;;23.00;59.30;;;;;;5019366;28;20073;-69
2021/08/06 08:14:16;;;;;;;1.15;0.40;;;23.10;59.40;;;;;;5015819;28;20095;-72
2021/08/06 08:16:45;;;;;;;0.65;0.50;;;23.10;59.40;;;;;;5022693;28;20050;-71
2021/08/06 08:19:12;;;;;;;0.17;0.17;;;23.00;59.40;;;;;;5023190;28;20083;-67
2021/08/06 08:21:39;;;;;;;0.30;0.30;;;23.10;59.50;;;;;;5018637;28;20057;-74
2021/08/06 08:24:06;;;;;;;0.40;0.40;;;23.10;59.50;;;;;;5016959;28;20073;-65
2021/08/06 08:26:34;;;;;;;0.50;0.40;;;23.00;59.50;;;;;;5023114;28;20505;-64
2021/08/06 08:29:03;;;;;;;0.85;0.52;;;23.10;59.60;;;;;;5021890;28;20100;-68
2021/08/06 08:31:30;;;;;;;2.90;1.35;;;23.10;59.60;;;;;;5015982;28;20458;-64
2021/08/06 08:33:57;;;;;;;0.73;0.73;;;23.10;59.70;;;;;;5021513;28;20053;-68
2021/08/06 08:36:24;;;;;;;0.73;0.70;;;23.10;59.90;;;;;;5022243;28;20148;-71
2021/08/06 08:38:51;;;;;;;1.23;0.70;;;23.10;60.00;;;;;;5020116;28;20133;-70
2021/08/06 08:41:18;;;;;;;1.42;0.90;;;23.20;60.20;;;;;;5018772;28;20049;-72
2021/08/06 08:43:46;;;;;;;4.15;1.05;;;23.20;60.00;;;;;;5021262;28;20517;-72
2021/08/06 08:46:13;;;;;;;1.42;0.90;;;23.20;59.80;;;;;;5018474;28;20063;-63
2021/08/06 08:48:40;;;;;;;1.77;0.95;;;23.20;59.70;;;;;;5014722;28;20528;-73
2021/08/06 08:51:08;;;;;;;1.75;0.90;;;23.20;59.60;;;;;;5016895;28;20120;-71
2021/08/06 08:53:35;;;;;;;1.50;0.70;;;23.20;59.40;;;;;;5015335;28;20081;-71
2021/08/06 08:56:03;;;;;;;1.90;0.70;;;23.20;59.30;;;;;;5013652;28;20125;-70
2021/08/06 08:58:31;;;;;;;1.33;0.70;;;23.20;59.30;;;;;;5017204;28;20049;-70
2021/08/06 09:00:58;;;;;;;1.25;0.80;;;23.30;59.20;;;;;;5016869;28;20081;-70
2021/08/06 09:03:46;;;;;;;2.50;1.40;;;23.30;59.20;;;;;;5021316;28;20048;-69
2021/08/06 09:06:13;;;;;;;1.05;0.93;;;23.30;59.10;;;;;;5022551;28;20081;-70
2021/08/06 09:08:41;;;;;;;0.85;0.68;;;23.30;59.10;;;;;;5017052;28;20055;-73
2021/08/06 09:11:25;;;;;;;0.68;0.68;;;23.30;59.00;;;;;;5021884;28;20064;-71
2021/08/06 09:13:53;;;;;;;1.17;0.70;;;23.30;59.00;;;;;;5038845;28;20045;-71
2021/08/06 09:16:21;;;;;;;0.93;0.73;;;23.40;59.00;;;;;;5015157;28;20057;-70
2021/08/06 09:18:48;;;;;;;0.75;0.60;;;23.40;58.90;;;;;;5017906;28;20147;-71
2021/08/06 09:21:21;;;;;;;1.58;0.70;;;23.40;58.80;;;;;;5022821;28;20053;-70
2021/08/06 09:23:53;;;;;;;0.82;0.57;;;23.40;58.80;;;;;;5023159;28;20080;-72
2021/08/06 09:26:41;;;;;;;1.10;0.63;;;23.40;58.70;;;;;;5012797;28;20103;-69
2021/08/06 09:29:18;;;;;;;0.55;0.55;;;23.50;58.80;;;;;;5015706;28;20046;-72
2021/08/06 09:31:57;;;;;;;0.80;0.70;;;23.50;58.60;;;;;;5019536;28;20057;-67
2021/08/06 09:34:32;;;;;;;0.47;0.47;;;23.50;58.40;;;;;;5008151;28;20092;-65
2021/08/06 09:37:24;;;;;;;0.90;0.70;;;23.60;58.30;;;;;;5017775;28;20084;-65
2021/08/06 09:39:54;;;;;;;0.70;0.70;;;23.60;58.20;;;;;;5021289;28;20133;-66
2021/08/06 09:42:39;;;;;;;2.55;0.60;;;23.60;58.20;;;;;;5016248;28;20125;-65
2021/08/06 09:45:14;;;;;;;1.52;0.73;;;23.60;58.20;;;;;;5016996;28;20098;-66
2021/08/06 09:47:45;;;;;;;0.73;0.73;;;23.60;58.20;;;;;;5018332;28;20065;-72
2021/08/06 09:50:15;;;;;;;1.00;0.68;;;23.60;58.00;;;;;;5020848;28;20060;-74
2021/08/06 09:52:45;;;;;;;0.70;0.70;;;23.70;58.00;;;;;;5017034;28;20037;-65
2021/08/06 09:55:31;;;;;;;0.57;0.55;;;23.70;58.60;;;;;;5023089;28;20057;-65
2021/08/06 09:57:59;;;;;;;0.85;0.63;;;23.70;57.90;;;;;;5022429;28;20125;-64
2021/08/06 10:00:31;;;;;;;0.55;0.55;;;23.80;57.90;;;;;;5015073;28;20045;-67
2021/08/06 10:02:58;;;;;;;1.35;0.45;;;23.80;57.80;;;;;;5021964;28;20406;-66
2021/08/06 10:05:31;;;;;;;0.65;0.57;;;23.80;57.70;;;;;;5025015;28;20468;-66
2021/08/06 10:08:02;;;;;;;0.47;0.47;;;23.80;57.70;;;;;;5028423;28;20121;-65
2021/08/06 10:10:32;;;;;;;0.88;0.52;;;23.80;57.60;;;;;;5026455;28;20053;-65
2021/08/06 10:13:00;;;;;;;0.57;0.55;;;23.80;57.40;;;;;;5025175;28;20089;-66
2021/08/06 10:15:29;;;;;;;1.10;1.00;;;23.80;57.30;;;;;;5022612;28;20051;-68
2021/08/06 10:17:57;;;;;;;0.50;0.50;;;23.90;57.30;;;;;;5026285;28;20128;-67
2021/08/06 10:20:27;;;;;;;2.40;0.82;;;23.90;57.30;;;;;;5027546;28;20053;-67
2021/08/06 10:22:54;;;;;;;0.70;0.70;;;23.90;57.20;;;;;;5025072;28;20117;-68
2021/08/06 10:25:24;;;;;;;0.57;0.57;;;23.90;57.20;;;;;;5022298;28;20124;-67
2021/08/06 10:27:51;;;;;;;4.00;1.83;;;24.00;57.20;;;;;;5020143;28;20045;-67
2021/08/06 10:30:35;;;;;;;0.50;0.50;;;24.00;57.00;;;;;;5020112;28;20083;-67
2021/08/06 10:33:28;;;;;;;0.65;0.55;;;24.00;56.70;;;;;;5021836;28;20056;-67
2021/08/06 10:36:05;;;;;;;0.38;0.38;;;24.10;56.60;;;;;;5014979;28;20766;-67
2021/08/06 10:38:44;;;;;;;0.45;0.45;;;24.10;56.40;;;;;;5038448;28;20125;-66
2021/08/06 10:41:16;;;;;;;0.60;0.60;;;24.10;56.30;;;;;;5011994;28;20119;-66
2021/08/06 10:43:47;;;;;;;0.50;0.50;;;24.10;56.00;;;;;;5020246;28;20111;-66
2021/08/06 10:46:17;;;;;;;5.57;0.70;;;24.10;55.90;;;;;;5017530;28;20610;-62
2021/08/06 10:48:47;;;;;;;0.50;0.50;;;24.10;55.70;;;;;;5018783;28;20115;-62
2021/08/06 10:51:19;;;;;;;0.40;0.30;;;24.10;55.70;;;;;;5018427;28;20053;-63
2021/08/06 10:54:26;;;;;;;0.40;0.40;;;24.10;55.70;;;;;;5014909;28;20662;-61
2021/08/06 10:57:19;;;;;;;0.57;0.57;;;24.10;55.80;;;;;;5022350;28;20147;-65
2021/08/06 10:59:47;;;;;;;0.32;0.32;;;24.10;56.00;;;;;;5015570;28;20068;-65
2021/08/06 11:02:35;;;;;;;0.60;0.60;;;24.10;56.00;;;;;;5016410;28;20118;-66
2021/08/06 11:05:37;;;;;;;0.50;0.50;;;24.10;55.80;;;;;;5018958;28;20132;-64
2021/08/06 11:08:45;;;;;;;0.60;0.60;;;24.10;55.70;;;;;;5013721;28;20084;-62
2021/08/06 11:11:52;;;;;;;0.50;0.50;;;24.10;55.60;;;;;;5015617;28;20128;-63
2021/08/06 11:14:49;;;;;;;0.40;0.40;;;24.10;55.70;;;;;;5019164;28;20396;-64
2021/08/06 11:17:19;;;;;;;0.40;0.40;;;24.10;55.70;;;;;;5022963;28;20056;-64
2021/08/06 11:20:07;;;;;;;1.55;0.30;;;24.00;55.60;;;;;;5020453;28;20053;-64
2021/08/06 11:22:40;;;;;;;2.05;0.30;;;24.00;56.00;;;;;;5022090;28;20058;-62
2021/08/06 11:25:15;;;;;;;0.73;0.30;;;24.00;55.90;;;;;;5014751;28;20053;-60
2021/08/06 11:27:48;;;;;;;0.60;0.60;;;24.00;55.90;;;;;;5018512;28;20140;-65
2021/08/06 11:30:19;;;;;;;0.20;0.20;;;24.00;55.90;;;;;;5015066;28;20454;-63
2021/08/06 11:32:57;;;;;;;0.35;0.32;;;24.00;55.80;;;;;;5015545;28;20494;-63
2021/08/06 11:35:31;;;;;;;0.32;0.32;;;24.00;55.60;;;;;;5017309;28;20144;-65
2021/08/06 11:38:03;;;;;;;0.40;0.28;;;24.00;55.60;;;;;;5016276;28;20128;-63
2021/08/06 11:40:42;;;;;;;0.75;0.40;;;24.00;55.40;;;;;;5018245;28;20572;-61
2021/08/06 11:43:19;;;;;;;0.35;0.35;;;24.00;55.30;;;;;;5021051;28;20506;-60
2021/08/06 11:45:50;;;;;;;0.65;0.30;;;24.00;55.00;;;;;;5020390;28;20130;-61
2021/08/06 11:48:17;;;;;;;0.50;0.50;;;24.00;54.80;;;;;;5018873;28;20067;-63
2021/08/06 11:50:49;;;;;;;2.08;0.50;;;24.00;54.70;;;;;;5017788;28;20084;-68
2021/08/06 11:53:19;;;;;;;2.47;0.55;;;24.00;54.70;;;;;;5018655;28;20096;-64
2021/08/06 11:55:49;;;;;;;3.10;0.95;;;24.00;54.60;;;;;;5016166;28;20056;-65
2021/08/06 11:58:30;;;;;;;0.30;0.30;;;24.00;54.70;;;;;;5015532;28;20171;-65
2021/08/06 12:00:57;;;;;;;1.60;0.50;;;24.00;54.60;;;;;;5024033;28;20049;-66
2021/08/06 12:03:25;;;;;;;0.30;0.30;;;24.00;54.50;;;;;;5024385;28;20418;-66
2021/08/06 12:06:00;;;;;;;0.40;0.40;;;24.00;54.50;;;;;;5022756;28;20045;-66
2021/08/06 12:08:33;;;;;;;0.30;0.30;;;24.10;54.40;;;;;;5023405;28;20045;-66
2021/08/06 12:11:10;;;;;;;0.40;0.40;;;24.10;54.30;;;;;;5019186;28;20096;-66
2021/08/06 12:13:45;;;;;;;0.38;0.38;;;24.10;54.30;;;;;;5016379;28;20129;-66
2021/08/06 12:16:17;;;;;;;0.50;0.50;;;24.10;54.20;;;;;;5014339;28;20140;-66
2021/08/06 12:18:57;;;;;;;0.40;0.40;;;24.10;54.10;;;;;;5020700;28;20081;-66
2021/08/06 12:21:30;;;;;;;0.40;0.40;;;24.00;54.20;;;;;;5016426;28;20429;-66
2021/08/06 12:24:02;;;;;;;0.38;0.38;;;24.00;54.20;;;;;;5023039;28;20405;-66
2021/08/06 12:26:52;;;;;;;0.38;0.38;;;24.00;54.20;;;;;;5025296;28;20076;-66
2021/08/06 12:29:23;;;;;;;0.75;0.30;;;24.00;54.20;;;;;;5024605;28;20160;-66
2021/08/06 12:32:05;;;;;;;0.30;0.30;;;24.10;54.30;;;;;;5024464;28;20481;-66
2021/08/06 12:34:36;;;;;;;3.97;0.40;;;24.10;54.30;;;;;;5015753;28;20042;-66
2021/08/06 12:37:09;;;;;;;0.38;0.38;;;24.00;54.40;;;;;;5019261;28;20053;-66
2021/08/06 12:39:52;;;;;;;0.55;0.55;;;24.10;54.50;;;;;;5024902;28;20140;-66
2021/08/06 12:42:23;;;;;;;0.40;0.40;;;24.00;54.50;;;;;;5023556;28;20049;-66
2021/08/06 12:45:19;;;;;;;0.40;0.40;;;24.10;54.60;;;;;;5022731;28;20132;-66
2021/08/06 12:47:53;;;;;;;1.27;0.63;;;24.10;54.70;;;;;;5022976;28;20056;-65
2021/08/06 12:50:30;;;;;;;1.77;0.30;;;24.10;54.70;;;;;;5023540;28;20045;-64
2021/08/06 12:53:02;;;;;;;0.30;0.30;;;24.00;54.90;;;;;;5023474;28;20478;-66
2021/08/06 12:55:30;;;;;;;0.22;0.22;;;24.00;55.00;;;;;;5014288;28;20444;-67
2021/08/06 12:58:21;;;;;;;1.65;0.40;;;24.10;55.00;;;;;;5023217;28;20462;-66
2021/08/06 13:00:50;;;;;;;1.38;0.35;;;24.10;54.90;;;;;;5019538;28;20482;-67
2021/08/06 13:03:22;;;;;;;0.40;0.40;;;24.10;55.00;;;;;;5023921;28;20105;-67
2021/08/06 13:05:59;;;;;;;0.30;0.30;;;24.10;55.10;;;;;;5022727;28;20049;-67